Atlantic, PA (16111)

4:35 AM EDT on October 26, 2014 (GMT -0400)
Port Meadville | Change Station
CLOSE
Current Station
Airport
Location: Meadville,
Elevation: 1401 ft
Nearby Weather Stations

Elev 1401 ft 41.63 °N, 80.21 °W | Updated 42 minutes ago

Clear
Clear
46 °F
Feels Like 44 °F
N
5
Wind Variable Wind from West

Today
High -- | Low -- °F
--% Chance of Precip.
Yesterday
High -- | Low -- °F
Precip. -- in
7:45 AM 6:23 PM
Waxing Crescent, 6% visible
Pressure 29.76 in
Visibility 10.0 miles
Clouds Clear
Windchill 44 °F
Dew Point 36 °F
Humidity 68%
Rainfall 0.00 in
Snow Depth Not available.
UV 0 out of 12
Pollen 1.40 out of 12
Air Quality Not available.
Flu Activity Sporadic
METAR KGKJ 260753Z AUTO 27004KT 10SM CLR 08/02 A2976 RMK AO2 SLP077 T00780022 TSNO

More Conditions Fewer Conditions

Pressure 29.76 in
Visibility 10.0 miles
Clouds Clear
Windchill 44 °F
Dew Point 36 °F
Humidity 68%
Rainfall 0.00 in
Snow Depth Not available.
UV 0 out of 12
Pollen 1.40 out of 12
Air Quality Not available.
Flu Activity Sporadic
METAR KGKJ 260753Z AUTO 27004KT 10SM CLR 08/02 A2976 RMK AO2 SLP077 T00780022 TSNO

More Conditions Fewer Conditions

10-Day Weather Forecast

Almanac

Astronomy

Oct. 26, 2014 Rise Set
Actual Time 7:45 AM EDT 6:23 PM EDT
Civil Twilight 7:17 AM EDT 6:52 PM EDT
Nautical Twilight 6:44 AM EDT 7:24 PM EDT
Astronomical Twilight 6:12 AM EDT 7:56 PM EDT
Moon 10:23 AM EDT 8:32 PM EDT
Length of Visible Light 11h 34m
Length of Day
10h 38m
Tomorrow will be 2m 32s shorter.
Waxing Crescent, 6% of the Moon is Illuminated
Today
Waxing Crescent
Oct 30
First Quarter
Nov 6
Full
Nov 14
Last Quarter
Nov 22
New

Today's Extremes

State Highs State Lows

Community

WunderPhotos

Upload Photos

1,765,127 photos uploaded!

Nearby

Snow Depth

Station Depth Elevation
No new snow has been reported.

Earthquake Activity

City Distance Mag. Time & Date
No recent earthquake activity has been reported nearby.
Minimum magnitude displayed is 2.5.

Coastal Water Temperatures

Place Temperature
No Stations Reporting

Nearby Weather Stations